Time;durP1;ratioP1;P1;durP2;ratioP2;P2;SDS_P1;SDS_P2;PMS_P1;PMS_P2;Temp;Humidity;BMP_temperature;BMP_pressure;BME280_temperature;BME280_humidity;BME280_pressure;Samples;Min_cycle;Max_cycle;Signal;HPM_P1;HPM_P2
2023/04/10 00:00:10;;;;;;;0.00;0.00;;;7.30;99.90;;;;;;5054628;28;20194;-81
2023/04/10 00:02:36;;;;;;;0.10;0.10;;;7.30;99.90;;;;;;5064580;28;20313;-81
2023/04/10 00:05:02;;;;;;;0.10;0.10;;;7.10;99.90;;;;;;5064811;28;20663;-81
2023/04/10 00:07:28;;;;;;;0.10;0.10;;;7.10;99.90;;;;;;5064019;28;20194;-81
2023/04/10 00:09:54;;;;;;;0.10;0.10;;;7.00;99.90;;;;;;5063603;28;20207;-81
2023/04/10 00:12:20;;;;;;;0.10;0.10;;;7.00;99.90;;;;;;5063512;28;20204;-81
2023/04/10 00:14:46;;;;;;;0.10;0.10;;;6.80;99.90;;;;;;5061058;28;20189;-81
2023/04/10 00:17:11;;;;;;;0.10;0.10;;;6.70;99.90;;;;;;5063181;28;20238;-81
2023/04/10 00:19:37;;;;;;;0.10;0.10;;;6.60;99.90;;;;;;5060157;28;20549;-81
2023/04/10 00:22:03;;;;;;;0.10;0.10;;;6.50;99.90;;;;;;5061962;28;20186;-81
2023/04/10 00:24:29;;;;;;;0.10;0.10;;;6.50;99.90;;;;;;5061092;28;20209;-81
2023/04/10 00:26:56;;;;;;;0.10;0.10;;;6.50;99.90;;;;;;5055593;28;20185;-81
2023/04/10 00:29:22;;;;;;;0.10;0.10;;;6.60;99.90;;;;;;5061792;28;20574;-81
2023/04/10 00:31:47;;;;;;;0.10;0.10;;;6.70;99.90;;;;;;5057862;28;20192;-82
2023/04/10 00:34:13;;;;;;;0.10;0.10;;;6.80;99.90;;;;;;5064020;28;20205;-81
2023/04/10 00:36:39;;;;;;;0.00;0.00;;;6.90;99.90;;;;;;5059891;28;20278;-81
2023/04/10 00:39:06;;;;;;;0.10;0.10;;;7.00;99.90;;;;;;5063513;28;20299;-81
2023/04/10 00:41:32;;;;;;;0.10;0.10;;;6.90;99.90;;;;;;5059924;28;20273;-81
2023/04/10 00:43:58;;;;;;;0.00;0.00;;;7.00;99.90;;;;;;5059923;28;20265;-81
2023/04/10 00:46:24;;;;;;;0.10;0.10;;;6.80;99.90;;;;;;5062194;28;20667;-80
2023/04/10 00:48:51;;;;;;;0.10;0.10;;;6.60;99.90;;;;;;5059241;28;20257;-81
2023/04/10 00:51:21;;;;;;;0.10;0.10;;;6.60;99.90;;;;;;5061430;28;20656;-81
2023/04/10 00:53:50;;;;;;;0.10;0.10;;;6.60;99.90;;;;;;5056093;28;20207;-81
2023/04/10 00:56:17;;;;;;;0.10;0.10;;;6.70;99.90;;;;;;5062954;28;20181;-81
2023/04/10 00:58:43;;;;;;;0.00;0.00;;;6.80;99.90;;;;;;5061281;28;20210;-80
2023/04/10 01:01:08;;;;;;;0.00;0.00;;;6.70;99.90;;;;;;5058394;28;20676;-81
2023/04/10 01:03:35;;;;;;;0.00;0.00;;;6.70;99.90;;;;;;5063299;28;20219;-81
2023/04/10 01:06:07;;;;;;;0.10;0.10;;;6.60;99.90;;;;;;5059300;28;20242;-81
2023/04/10 01:09:07;;;;;;;0.10;0.10;;;6.70;99.90;;;;;;5055891;28;20197;-82
2023/04/10 01:12:03;;;;;;;0.10;0.10;;;6.70;99.90;;;;;;5056969;28;20187;-81
2023/04/10 01:14:28;;;;;;;0.10;0.10;;;6.50;99.90;;;;;;5060821;28;20238;-81
2023/04/10 01:17:01;;;;;;;0.00;0.00;;;6.50;99.90;;;;;;5057994;28;20186;-81
2023/04/10 01:19:59;;;;;;;0.10;0.10;;;6.40;99.90;;;;;;5060412;28;20530;-82
2023/04/10 01:22:36;;;;;;;0.10;0.10;;;6.30;99.90;;;;;;5061222;28;20598;-81
2023/04/10 01:25:26;;;;;;;0.10;0.10;;;6.40;99.90;;;;;;5062609;28;20187;-80
2023/04/10 01:28:06;;;;;;;0.10;0.10;;;6.30;99.90;;;;;;5063439;28;20197;-82
2023/04/10 01:30:34;;;;;;;0.10;0.10;;;6.20;99.90;;;;;;5062493;28;20208;-82
2023/04/10 01:33:01;;;;;;;0.03;0.03;;;6.10;99.90;;;;;;5062051;28;20377;-81
2023/04/10 01:35:29;;;;;;;0.10;0.10;;;6.10;99.90;;;;;;5065306;28;20270;-81
2023/04/10 01:37:55;;;;;;;0.10;0.10;;;6.00;99.90;;;;;;5058436;28;20180;-81
2023/04/10 01:40:25;;;;;;;0.10;0.10;;;6.10;99.90;;;;;;5057273;28;20187;-81
2023/04/10 01:42:54;;;;;;;0.10;0.10;;;6.20;99.90;;;;;;5080858;28;20346;-81
2023/04/10 01:45:23;;;;;;;0.10;0.10;;;6.30;99.90;;;;;;5065032;28;20195;-81
2023/04/10 01:47:48;;;;;;;0.10;0.10;;;6.20;99.90;;;;;;5063820;28;20182;-81
2023/04/10 01:50:14;;;;;;;0.10;0.10;;;6.10;99.90;;;;;;5062170;28;20240;-81
2023/04/10 01:52:41;;;;;;;0.10;0.10;;;6.10;99.90;;;;;;5065264;28;20225;-81
2023/04/10 01:55:07;;;;;;;0.00;0.00;;;6.10;99.90;;;;;;5064840;28;20275;-81
2023/04/10 01:57:35;;;;;;;0.10;0.10;;;6.10;99.90;;;;;;5064233;28;20770;-81
2023/04/10 02:00:01;;;;;;;0.10;0.10;;;6.00;99.90;;;;;;5059950;28;20322;-80
2023/04/10 02:02:31;;;;;;;0.07;0.07;;;6.10;99.90;;;;;;5063787;28;20226;-81
2023/04/10 02:04:56;;;;;;;0.10;0.10;;;6.20;99.90;;;;;;5062475;28;20223;-81
2023/04/10 02:07:35;;;;;;;0.10;0.10;;;6.30;99.90;;;;;;5064799;28;20215;-81
2023/04/10 02:10:20;;;;;;;0.10;0.10;;;6.40;99.90;;;;;;5060932;28;20303;-81
2023/04/10 02:12:54;;;;;;;0.10;0.10;;;6.50;99.90;;;;;;5059868;28;20234;-81
2023/04/10 02:15:22;;;;;;;0.10;0.10;;;6.60;99.90;;;;;;5062727;28;20199;-81
2023/04/10 02:17:49;;;;;;;0.10;0.10;;;6.60;99.90;;;;;;5064133;28;20192;-81
2023/04/10 02:20:17;;;;;;;0.10;0.10;;;6.50;99.90;;;;;;5063754;28;20193;-82
2023/04/10 02:22:43;;;;;;;0.10;0.10;;;6.40;99.90;;;;;;5062339;28;20296;-81
2023/04/10 02:25:09;;;;;;;0.10;0.10;;;6.30;99.90;;;;;;5060890;28;20188;-81
2023/04/10 02:27:36;;;;;;;0.10;0.10;;;6.10;99.90;;;;;;5062314;28;20953;-81
2023/04/10 02:30:03;;;;;;;0.10;0.10;;;6.00;99.90;;;;;;5062590;28;20277;-81
2023/04/10 02:32:29;;;;;;;0.10;0.10;;;5.90;99.90;;;;;;5064030;28;20679;-81
2023/04/10 02:34:55;;;;;;;0.10;0.10;;;5.80;99.90;;;;;;5064602;28;20196;-81
2023/04/10 02:37:21;;;;;;;0.10;0.10;;;5.80;99.90;;;;;;5060938;28;20202;-81
2023/04/10 02:39:47;;;;;;;0.10;0.10;;;5.90;99.90;;;;;;5062289;28;20198;-81
2023/04/10 02:42:13;;;;;;;0.10;0.10;;;6.00;99.90;;;;;;5059776;28;20188;-82
2023/04/10 02:44:38;;;;;;;0.10;0.10;;;5.90;99.90;;;;;;5062579;28;20257;-81
2023/04/10 02:47:05;;;;;;;0.10;0.10;;;5.80;99.90;;;;;;5059303;28;20227;-81
2023/04/10 02:49:30;;;;;;;0.10;0.10;;;5.60;99.90;;;;;;5063946;28;20275;-80
2023/04/10 02:51:56;;;;;;;0.10;0.10;;;5.50;99.90;;;;;;5063320;28;20214;-81
2023/04/10 02:54:21;;;;;;;0.10;0.10;;;5.60;99.90;;;;;;5062319;28;20217;-82
2023/04/10 02:56:47;;;;;;;0.00;0.00;;;5.50;99.90;;;;;;5063599;28;20204;-81
2023/04/10 02:59:13;;;;;;;0.10;0.10;;;5.50;99.90;;;;;;5064937;28;20601;-81
2023/04/10 03:01:38;;;;;;;0.10;0.10;;;5.50;99.90;;;;;;5063955;28;20191;-81
2023/04/10 03:04:05;;;;;;;0.10;0.10;;;5.60;99.90;;;;;;5061713;28;20305;-81
2023/04/10 03:06:30;;;;;;;0.10;0.10;;;5.60;99.90;;;;;;5066655;28;20182;-81
2023/04/10 03:08:56;;;;;;;0.00;0.00;;;5.60;99.90;;;;;;5061400;28;20215;-80
2023/04/10 03:11:22;;;;;;;0.10;0.10;;;5.60;99.90;;;;;;5060169;28;20191;-82
2023/04/10 03:13:47;;;;;;;0.10;0.10;;;5.70;99.90;;;;;;5060184;28;20204;-81
2023/04/10 03:16:14;;;;;;;0.10;0.10;;;5.90;99.90;;;;;;5061674;28;20287;-81
2023/04/10 03:18:40;;;;;;;0.10;0.10;;;6.00;99.90;;;;;;5065987;28;20182;-81
2023/04/10 03:21:06;;;;;;;0.10;0.10;;;6.00;99.90;;;;;;5063912;28;20189;-81
2023/04/10 03:23:31;;;;;;;0.10;0.10;;;6.00;99.90;;;;;;5061044;28;20201;-81
2023/04/10 03:25:57;;;;;;;0.10;0.10;;;5.90;99.90;;;;;;5056672;28;20179;-81
2023/04/10 03:28:22;;;;;;;0.10;0.10;;;5.80;99.90;;;;;;5059954;28;20196;-81
2023/04/10 03:30:49;;;;;;;0.10;0.10;;;5.70;99.90;;;;;;5060380;28;20213;-81
2023/04/10 03:33:14;;;;;;;0.10;0.10;;;5.60;99.90;;;;;;5061346;28;20253;-81
2023/04/10 03:35:40;;;;;;;0.10;0.10;;;5.40;99.90;;;;;;5059410;28;20656;-82
2023/04/10 03:38:06;;;;;;;0.00;0.00;;;5.40;99.90;;;;;;5064972;28;20183;-81
2023/04/10 03:40:33;;;;;;;0.10;0.10;;;5.30;99.90;;;;;;5062986;28;20186;-81
2023/04/10 03:42:59;;;;;;;0.10;0.10;;;5.40;99.90;;;;;;5062484;28;20236;-81
2023/04/10 03:45:25;;;;;;;0.10;0.10;;;5.40;99.90;;;;;;5064254;28;20294;-81
2023/04/10 03:47:51;;;;;;;0.10;0.10;;;5.50;99.90;;;;;;5062416;28;20286;-81
2023/04/10 03:50:17;;;;;;;0.10;0.10;;;5.60;99.90;;;;;;5060758;28;20257;-81
2023/04/10 03:52:43;;;;;;;0.10;0.10;;;5.70;99.90;;;;;;5063101;28;20200;-81
2023/04/10 03:55:09;;;;;;;0.10;0.10;;;5.80;99.90;;;;;;5061343;28;20192;-81
2023/04/10 03:57:34;;;;;;;0.10;0.10;;;5.90;99.90;;;;;;5062681;28;20198;-81
2023/04/10 04:00:00;;;;;;;0.10;0.10;;;5.80;99.90;;;;;;5054673;28;20557;-81
2023/04/10 04:02:26;;;;;;;0.10;0.10;;;5.90;99.90;;;;;;5058716;28;20202;-81
2023/04/10 04:04:51;;;;;;;0.10;0.10;;;5.90;99.90;;;;;;5063917;28;20209;-81
2023/04/10 04:07:17;;;;;;;0.10;0.10;;;6.00;99.90;;;;;;5062215;28;20413;-81
2023/04/10 04:09:42;;;;;;;0.10;0.10;;;6.00;99.90;;;;;;5058967;28;20237;-81
2023/04/10 04:12:08;;;;;;;0.00;0.00;;;6.00;99.90;;;;;;5063063;28;20266;-81
2023/04/10 04:14:34;;;;;;;0.10;0.10;;;6.00;99.90;;;;;;5057830;28;20189;-81
2023/04/10 04:16:59;;;;;;;0.10;0.10;;;6.00;99.90;;;;;;5055887;28;20223;-81
2023/04/10 04:19:25;;;;;;;0.10;0.10;;;5.90;99.90;;;;;;5058557;28;20216;-81
2023/04/10 04:21:51;;;;;;;0.10;0.10;;;5.90;99.90;;;;;;5057589;28;20195;-81
2023/04/10 04:24:16;;;;;;;0.10;0.10;;;6.00;99.90;;;;;;5061598;28;20215;-81
2023/04/10 04:26:42;;;;;;;0.00;0.00;;;6.00;99.90;;;;;;5062811;28;20841;-81
2023/04/10 04:29:07;;;;;;;0.10;0.10;;;5.70;99.90;;;;;;5059720;28;20202;-81
2023/04/10 04:31:36;;;;;;;0.10;0.10;;;5.80;99.90;;;;;;5059159;28;20232;-82
2023/04/10 04:34:01;;;;;;;0.10;0.10;;;5.90;99.90;;;;;;5061599;28;20208;-81
2023/04/10 04:36:27;;;;;;;0.10;0.10;;;5.50;99.90;;;;;;5060133;28;20194;-81
2023/04/10 04:38:53;;;;;;;0.10;0.10;;;5.30;99.90;;;;;;5057709;28;20186;-81
2023/04/10 04:41:19;;;;;;;0.10;0.10;;;5.40;99.90;;;;;;5063324;28;20198;-81
2023/04/10 04:43:46;;;;;;;0.07;0.07;;;5.30;99.90;;;;;;5060576;28;20594;-81
2023/04/10 04:46:12;;;;;;;0.10;0.10;;;5.30;99.90;;;;;;5057560;28;20193;-81
2023/04/10 04:48:37;;;;;;;0.10;0.10;;;5.20;99.90;;;;;;5056195;28;20969;-81
2023/04/10 04:51:05;;;;;;;0.10;0.10;;;5.10;99.90;;;;;;5061295;28;20183;-81
2023/04/10 04:53:31;;;;;;;0.10;0.10;;;5.20;99.90;;;;;;5060665;28;20203;-80
2023/04/10 04:55:57;;;;;;;0.10;0.10;;;5.10;99.90;;;;;;5063451;28;20193;-81
2023/04/10 04:58:23;;;;;;;0.10;0.10;;;5.10;99.90;;;;;;5058843;28;20247;-80
2023/04/10 05:00:51;;;;;;;0.10;0.10;;;5.00;99.90;;;;;;5060948;28;21002;-80
2023/04/10 05:03:17;;;;;;;0.10;0.10;;;5.00;99.90;;;;;;5076651;28;20216;-80
2023/04/10 05:05:43;;;;;;;0.00;0.00;;;5.10;99.90;;;;;;5059486;28;20182;-80
2023/04/10 05:08:09;;;;;;;0.10;0.10;;;5.10;99.90;;;;;;5065635;28;20691;-80
2023/04/10 05:10:35;;;;;;;0.10;0.10;;;5.20;99.90;;;;;;5065477;28;20297;-79
2023/04/10 05:13:00;;;;;;;0.10;0.10;;;5.20;99.90;;;;;;5061616;28;20840;-81
2023/04/10 05:15:26;;;;;;;0.10;0.10;;;5.30;99.90;;;;;;5066709;28;20246;-83
2023/04/10 05:17:52;;;;;;;0.10;0.10;;;5.40;99.90;;;;;;5069171;28;20186;-82
2023/04/10 05:20:18;;;;;;;0.10;0.10;;;5.50;99.90;;;;;;5063670;28;20732;-82
2023/04/10 05:22:44;;;;;;;0.10;0.10;;;5.60;99.90;;;;;;5062561;28;20262;-81
2023/04/10 05:25:10;;;;;;;0.10;0.10;;;5.70;99.90;;;;;;5061805;28;20182;-81
2023/04/10 05:27:35;;;;;;;0.10;0.10;;;5.80;99.90;;;;;;5063536;28;20274;-82
2023/04/10 05:30:01;;;;;;;0.10;0.10;;;5.90;99.90;;;;;;5057108;28;20223;-82
2023/04/10 05:32:27;;;;;;;0.10;0.10;;;6.00;99.90;;;;;;5059302;28;20192;-82
2023/04/10 05:34:52;;;;;;;0.10;0.10;;;6.20;99.90;;;;;;5061193;28;20934;-82
2023/04/10 05:37:18;;;;;;;0.10;0.10;;;6.40;99.90;;;;;;5063782;28;20214;-82
2023/04/10 05:39:43;;;;;;;0.10;0.10;;;6.50;99.90;;;;;;5063062;28;20265;-82
2023/04/10 05:42:08;;;;;;;0.10;0.10;;;6.70;99.90;;;;;;5061126;28;20213;-82
2023/04/10 05:44:34;;;;;;;0.10;0.10;;;6.90;99.90;;;;;;5067717;28;20234;-82
2023/04/10 05:46:59;;;;;;;0.00;0.00;;;7.00;99.90;;;;;;5064985;28;20661;-84
2023/04/10 05:49:25;;;;;;;0.10;0.10;;;7.20;99.90;;;;;;5066836;28;20203;-83
2023/04/10 05:51:52;;;;;;;0.10;0.10;;;7.20;99.90;;;;;;5071615;28;20275;-83
2023/04/10 05:54:17;;;;;;;0.10;0.10;;;7.40;99.90;;;;;;5061066;28;20732;-82
2023/04/10 05:56:43;;;;;;;0.10;0.10;;;7.50;99.90;;;;;;5066510;28;20186;-83
2023/04/10 05:59:09;;;;;;;0.10;0.10;;;7.70;99.90;;;;;;5065360;28;20826;-82
2023/04/10 06:01:34;;;;;;;0.10;0.10;;;7.80;99.90;;;;;;5067575;28;20215;-84
2023/04/10 06:04:01;;;;;;;0.10;0.10;;;7.90;99.90;;;;;;5058976;28;20207;-83
2023/04/10 06:06:28;;;;;;;0.10;0.10;;;8.00;99.90;;;;;;5060753;28;20188;-83
2023/04/10 06:08:54;;;;;;;0.10;0.10;;;8.20;99.90;;;;;;5061208;28;20208;-84
2023/04/10 06:11:20;;;;;;;0.10;0.10;;;8.20;99.90;;;;;;5063987;28;20252;-82
2023/04/10 06:13:46;;;;;;;0.10;0.10;;;8.30;99.90;;;;;;5063829;28;20211;-82
2023/04/10 06:16:13;;;;;;;0.10;0.10;;;8.30;99.90;;;;;;5070690;28;20285;-83
2023/04/10 06:18:40;;;;;;;0.10;0.10;;;8.50;99.90;;;;;;5068390;28;20302;-82
2023/04/10 06:21:06;;;;;;;0.10;0.10;;;8.40;99.90;;;;;;5067891;28;20189;-82
2023/04/10 06:23:32;;;;;;;0.10;0.10;;;8.60;99.90;;;;;;5070500;28;20212;-81
2023/04/10 06:25:58;;;;;;;0.10;0.10;;;8.60;99.90;;;;;;5067888;28;20200;-81
2023/04/10 06:28:24;;;;;;;0.10;0.10;;;8.70;99.90;;;;;;5065943;28;20181;-81
2023/04/10 06:30:50;;;;;;;0.10;0.10;;;8.90;99.90;;;;;;5064545;28;20291;-80
2023/04/10 06:33:15;;;;;;;0.10;0.10;;;9.00;99.90;;;;;;5064982;28;20216;-81
2023/04/10 06:35:41;;;;;;;0.10;0.10;;;9.20;99.90;;;;;;5055937;28;20196;-80
2023/04/10 06:38:07;;;;;;;0.10;0.10;;;9.30;99.90;;;;;;5061065;28;21069;-80
2023/04/10 06:40:33;;;;;;;0.10;0.10;;;9.50;99.90;;;;;;5064356;28;20189;-81
2023/04/10 06:42:59;;;;;;;0.10;0.10;;;9.70;99.90;;;;;;5063702;28;20713;-80
2023/04/10 06:45:25;;;;;;;0.10;0.10;;;10.00;99.90;;;;;;5063289;28;20181;-81
2023/04/10 06:47:50;;;;;;;0.10;0.10;;;10.10;99.90;;;;;;5081846;28;20187;-81
2023/04/10 06:50:16;;;;;;;0.10;0.10;;;10.30;99.90;;;;;;5062642;28;20254;-81
2023/04/10 06:52:46;;;;;;;0.10;0.10;;;10.10;99.90;;;;;;5066888;28;20244;-81
2023/04/10 06:55:12;;;;;;;0.10;0.10;;;10.10;99.90;;;;;;5061488;28;20177;-81
2023/04/10 06:57:38;;;;;;;0.10;0.10;;;10.30;99.90;;;;;;5059058;28;20185;-81
2023/04/10 07:00:06;;;;;;;0.10;0.10;;;10.70;99.90;;;;;;5063122;28;20195;-81
2023/04/10 07:02:31;;;;;;;0.10;0.10;;;10.90;99.90;;;;;;5064211;28;20236;-81
2023/04/10 07:04:57;;;;;;;0.10;0.10;;;11.00;99.90;;;;;;5061814;28;20208;-81
2023/04/10 07:07:22;;;;;;;0.10;0.10;;;11.20;99.90;;;;;;5067884;28;20227;-81
2023/04/10 07:09:48;;;;;;;0.10;0.10;;;11.30;99.90;;;;;;5061027;28;20212;-81
2023/04/10 07:12:14;;;;;;;0.10;0.10;;;11.30;99.90;;;;;;5059732;28;20181;-82
2023/04/10 07:14:40;;;;;;;0.10;0.10;;;11.60;99.90;;;;;;5064816;28;21028;-81
2023/04/10 07:17:05;;;;;;;0.10;0.10;;;11.80;99.90;;;;;;5063965;28;20188;-81
2023/04/10 07:19:31;;;;;;;0.10;0.10;;;11.50;99.90;;;;;;5061421;28;20204;-81
2023/04/10 07:21:57;;;;;;;3.30;3.20;;;11.40;99.90;;;;;;5059605;28;20220;-81
2023/04/10 07:24:22;;;;;;;0.10;0.10;;;11.70;99.90;;;;;;5057746;28;20204;-81
2023/04/10 07:26:48;;;;;;;0.10;0.10;;;11.80;99.90;;;;;;5062198;28;20181;-81
2023/04/10 07:29:14;;;;;;;0.10;0.10;;;11.90;99.90;;;;;;5054161;28;20201;-82
2023/04/10 07:31:40;;;;;;;0.10;0.10;;;12.10;99.90;;;;;;5057223;28;20181;-81
2023/04/10 07:34:06;;;;;;;0.10;0.10;;;11.50;99.90;;;;;;5063160;28;20232;-81
2023/04/10 07:36:32;;;;;;;0.10;0.10;;;11.90;99.90;;;;;;5062701;28;20208;-81
2023/04/10 07:38:57;;;;;;;0.10;0.10;;;12.20;99.90;;;;;;5066954;28;20193;-81
2023/04/10 07:41:23;;;;;;;0.10;0.10;;;12.20;99.90;;;;;;5064196;28;20606;-81
2023/04/10 07:43:49;;;;;;;0.10;0.10;;;12.30;99.90;;;;;;5063008;28;20211;-81
2023/04/10 07:46:15;;;;;;;0.10;0.10;;;12.20;99.90;;;;;;5063521;28;20487;-81
2023/04/10 07:48:41;;;;;;;0.10;0.10;;;12.30;99.90;;;;;;5062408;28;20185;-81
2023/04/10 07:51:08;;;;;;;0.10;0.10;;;12.00;99.90;;;;;;5066641;28;20184;-81
2023/04/10 07:53:37;;;;;;;0.10;0.10;;;11.40;99.90;;;;;;5062777;28;20296;-81
2023/04/10 07:56:03;;;;;;;0.10;0.10;;;11.50;99.90;;;;;;5062700;28;20778;-81
2023/04/10 07:58:29;;;;;;;0.10;0.10;;;12.00;99.90;;;;;;5065772;28;20177;-81
2023/04/10 08:00:55;;;;;;;0.10;0.10;;;12.20;99.90;;;;;;5067104;28;20254;-81
2023/04/10 08:03:22;;;;;;;0.10;0.10;;;12.50;99.90;;;;;;5060595;28;20225;-81
2023/04/10 08:05:47;;;;;;;0.10;0.10;;;12.80;99.90;;;;;;5064914;28;20186;-82
2023/04/10 08:08:15;;;;;;;0.10;0.10;;;13.00;99.90;;;;;;5066157;28;20246;-81
2023/04/10 08:10:40;;;;;;;0.10;0.10;;;13.20;99.90;;;;;;5065855;28;20678;-81
2023/04/10 08:13:06;;;;;;;0.10;0.10;;;13.10;99.90;;;;;;5058799;28;20220;-81
2023/04/10 08:15:32;;;;;;;0.10;0.10;;;13.30;99.90;;;;;;5062943;28;20188;-81
2023/04/10 08:17:57;;;;;;;0.10;0.10;;;13.40;99.90;;;;;;5068784;28;20188;-83
2023/04/10 08:20:23;;;;;;;0.10;0.10;;;13.50;99.90;;;;;;5066854;28;20182;-81
2023/04/10 08:22:49;;;;;;;0.10;0.10;;;13.70;99.90;;;;;;5058722;28;20254;-83
2023/04/10 08:25:15;;;;;;;0.10;0.10;;;13.90;99.90;;;;;;5067573;28;20185;-81
2023/04/10 08:27:41;;;;;;;0.10;0.10;;;13.90;99.90;;;;;;5067567;28;20187;-81
2023/04/10 08:30:07;;;;;;;0.10;0.10;;;13.30;99.90;;;;;;5061480;28;20628;-81
2023/04/10 08:32:32;;;;;;;0.10;0.10;;;13.50;99.90;;;;;;5062517;28;20225;-83
2023/04/10 08:34:58;;;;;;;0.10;0.10;;;13.90;99.90;;;;;;5063340;28;20327;-81
2023/04/10 08:37:25;;;;;;;0.10;0.10;;;13.50;99.90;;;;;;5065232;28;20597;-81
2023/04/10 08:39:51;;;;;;;0.10;0.10;;;13.60;99.90;;;;;;5061656;28;20269;-82
2023/04/10 08:42:17;;;;;;;0.10;0.10;;;14.00;99.90;;;;;;5061774;28;20179;-82
2023/04/10 08:44:42;;;;;;;0.10;0.10;;;13.70;99.90;;;;;;5059209;28;20203;-81
2023/04/10 08:47:09;;;;;;;0.10;0.10;;;13.80;99.90;;;;;;5061157;28;20214;-82
2023/04/10 08:49:52;;;;;;;0.37;0.37;;;13.80;99.90;;;;;;5064748;28;20212;-82
2023/04/10 08:52:21;;;;;;;0.10;0.10;;;13.80;99.90;;;;;;5060827;28;20181;-81
2023/04/10 08:54:49;;;;;;;0.10;0.10;;;13.90;99.90;;;;;;5062732;28;20185;-81
2023/04/10 08:57:19;;;;;;;0.00;0.00;;;14.30;99.90;;;;;;5066411;28;20271;-82
2023/04/10 08:59:50;;;;;;;0.10;0.10;;;14.70;99.90;;;;;;5060032;28;21230;-82
2023/04/10 09:02:16;;;;;;;3.30;0.80;;;14.60;99.90;;;;;;5063951;28;20242;-82
2023/04/10 09:04:48;;;;;;;0.10;0.10;;;14.10;99.90;;;;;;5061787;28;20185;-82
2023/04/10 09:07:14;;;;;;;0.10;0.10;;;14.00;99.90;;;;;;5064228;28;20184;-81
2023/04/10 09:09:39;;;;;;;0.10;0.10;;;14.60;99.90;;;;;;5064054;28;20257;-82
2023/04/10 09:12:06;;;;;;;0.10;0.10;;;15.10;99.90;;;;;;5060933;28;20183;-81
2023/04/10 09:14:34;;;;;;;0.10;0.10;;;15.40;99.90;;;;;;5064113;28;20204;-81
2023/04/10 09:17:22;;;;;;;0.10;0.10;;;15.70;99.90;;;;;;5059927;28;20182;-82
2023/04/10 09:19:56;;;;;;;0.10;0.10;;;16.20;99.90;;;;;;5063868;28;20662;-82
2023/04/10 09:22:30;;;;;;;0.10;0.10;;;16.40;99.90;;;;;;5057561;28;20226;-82
2023/04/10 09:24:58;;;;;;;0.10;0.10;;;16.60;99.90;;;;;;5062806;28;20688;-82
2023/04/10 09:27:30;;;;;;;0.00;0.00;;;16.80;99.90;;;;;;5063629;28;20188;-81
2023/04/10 09:29:56;;;;;;;0.10;0.10;;;16.70;99.90;;;;;;5062527;28;20204;-81
2023/04/10 09:32:45;;;;;;;0.10;0.10;;;16.70;99.90;;;;;;5061216;28;20276;-81
2023/04/10 09:35:13;;;;;;;0.10;0.10;;;16.60;99.90;;;;;;5061419;28;20185;-81
2023/04/10 09:37:40;;;;;;;0.10;0.10;;;16.90;99.90;;;;;;5060833;28;20821;-81
2023/04/10 09:40:18;;;;;;;0.10;0.10;;;17.00;99.90;;;;;;5067488;28;20188;-81
2023/04/10 09:42:44;;;;;;;0.10;0.10;;;17.00;99.90;;;;;;5062660;28;20204;-80
2023/04/10 09:45:09;;;;;;;0.10;0.10;;;16.90;99.90;;;;;;5062806;28;20188;-82
2023/04/10 09:47:35;;;;;;;0.10;0.10;;;16.80;99.90;;;;;;5066781;28;20185;-82
2023/04/10 09:50:00;;;;;;;0.10;0.10;;;16.40;99.90;;;;;;5065694;28;20205;-82
2023/04/10 09:52:32;;;;;;;0.10;0.10;;;16.60;99.90;;;;;;5065473;28;20189;-81
2023/04/10 09:54:59;;;;;;;0.10;0.10;;;16.60;99.90;;;;;;5063432;28;20204;-81
2023/04/10 09:57:28;;;;;;;0.10;0.10;;;16.90;99.90;;;;;;5068117;28;20181;-82
2023/04/10 09:59:56;;;;;;;0.10;0.10;;;17.00;99.90;;;;;;5065523;28;20189;-83
2023/04/10 10:02:23;;;;;;;0.10;0.10;;;17.20;99.90;;;;;;5067327;28;20261;-82
2023/04/10 10:04:50;;;;;;;0.10;0.10;;;17.40;99.90;;;;;;5066840;28;20181;-82
2023/04/10 10:07:17;;;;;;;0.17;0.17;;;17.20;99.90;;;;;;5067906;28;20187;-83
2023/04/10 10:09:44;;;;;;;0.10;0.10;;;16.90;99.90;;;;;;5069315;28;20239;-82
2023/04/10 10:12:12;;;;;;;0.10;0.10;;;17.10;99.90;;;;;;5065533;28;20276;-82
2023/04/10 10:14:52;;;;;;;0.10;0.10;;;17.00;99.90;;;;;;5064021;28;20193;-83
2023/04/10 10:17:20;;;;;;;0.10;0.10;;;17.50;99.90;;;;;;5065009;28;20201;-82
2023/04/10 10:20:07;;;;;;;0.10;0.10;;;17.50;99.90;;;;;;5067468;28;20693;-82
2023/04/10 10:22:35;;;;;;;0.10;0.10;;;17.40;99.90;;;;;;5069790;28;20287;-82
2023/04/10 10:25:01;;;;;;;0.10;0.10;;;17.00;99.90;;;;;;5061977;28;20189;-82
2023/04/10 10:27:33;;;;;;;0.10;0.10;;;17.20;99.90;;;;;;5063634;28;20658;-82
2023/04/10 10:29:59;;;;;;;0.10;0.10;;;17.70;99.90;;;;;;5063847;28;20205;-82
2023/04/10 10:32:26;;;;;;;0.10;0.10;;;17.80;99.90;;;;;;5065996;28;20231;-82
2023/04/10 10:34:52;;;;;;;0.10;0.10;;;17.90;99.90;;;;;;5065646;28;20185;-82
2023/04/10 10:37:22;;;;;;;0.10;0.10;;;18.20;99.90;;;;;;5059201;28;20185;-82
2023/04/10 10:40:03;;;;;;;0.10;0.10;;;18.30;99.90;;;;;;5062420;28;20263;-83
2023/04/10 10:42:55;;;;;;;0.10;0.10;;;18.60;99.90;;;;;;5067700;28;20184;-83
2023/04/10 10:45:37;;;;;;;0.10;0.10;;;18.70;99.90;;;;;;5071220;28;20232;-82
2023/04/10 10:48:02;;;;;;;0.10;0.10;;;18.90;99.90;;;;;;5071099;28;20276;-82
2023/04/10 10:50:57;;;;;;;0.10;0.10;;;18.80;99.90;;;;;;5070398;28;20388;-82
2023/04/10 10:53:39;;;;;;;0.10;0.10;;;18.90;99.90;;;;;;5067353;28;20208;-82
2023/04/10 10:56:17;;;;;;;0.10;0.10;;;18.80;99.90;;;;;;5069074;28;20170;-82
2023/04/10 10:58:47;;;;;;;0.10;0.10;;;19.10;99.90;;;;;;5068633;28;20199;-83
2023/04/10 11:01:12;;;;;;;0.10;0.10;;;19.20;99.90;;;;;;5063220;28;20185;-83
2023/04/10 11:03:38;;;;;;;0.10;0.10;;;19.40;99.90;;;;;;5078283;28;20220;-84
2023/04/10 11:06:11;;;;;;;0.10;0.10;;;19.60;99.90;;;;;;5059047;28;20181;-83
2023/04/10 11:08:45;;;;;;;0.10;0.10;;;19.80;99.90;;;;;;5059276;28;20177;-82
2023/04/10 11:11:22;;;;;;;0.10;0.10;;;19.40;99.90;;;;;;5059992;28;20185;-82
2023/04/10 11:13:56;;;;;;;0.10;0.10;;;19.50;99.90;;;;;;5062518;28;20212;-82
2023/04/10 11:16:40;;;;;;;0.10;0.10;;;19.50;99.90;;;;;;5059855;28;20185;-83
2023/04/10 11:19:07;;;;;;;0.10;0.10;;;19.50;99.90;;;;;;5059373;28;20242;-83
2023/04/10 11:21:34;;;;;;;0.10;0.10;;;19.90;99.90;;;;;;5057774;28;20759;-83
2023/04/10 11:23:59;;;;;;;0.10;0.10;;;19.90;99.90;;;;;;5062096;28;20217;-83
2023/04/10 11:26:38;;;;;;;0.10;0.10;;;20.10;99.90;;;;;;5061583;28;20289;-83
2023/04/10 11:29:16;;;;;;;0.10;0.10;;;20.10;99.90;;;;;;5059113;28;20225;-82
2023/04/10 11:31:53;;;;;;;0.10;0.10;;;20.20;99.90;;;;;;5066230;28;20193;-82
2023/04/10 11:34:19;;;;;;;0.17;0.17;;;20.40;99.90;;;;;;5067023;28;20208;-82
2023/04/10 11:36:45;;;;;;;0.10;0.10;;;20.50;99.90;;;;;;5068587;28;20193;-82
2023/04/10 11:39:13;;;;;;;0.10;0.10;;;20.60;99.90;;;;;;5067682;28;20189;-82
2023/04/10 11:41:40;;;;;;;0.10;0.10;;;20.60;99.90;;;;;;5063488;28;20201;-83
2023/04/10 11:44:09;;;;;;;0.10;0.10;;;20.50;99.90;;;;;;5065037;28;20197;-83
2023/04/10 11:46:46;;;;;;;0.10;0.10;;;20.60;99.90;;;;;;5062931;28;22214;-83
2023/04/10 11:49:16;;;;;;;0.10;0.10;;;20.80;99.90;;;;;;5056958;28;21358;-83
2023/04/10 11:51:45;;;;;;;0.10;0.10;;;20.70;99.90;;;;;;5065898;28;20219;-83
2023/04/10 11:54:16;;;;;;;0.10;0.10;;;20.90;99.90;;;;;;5062549;28;20207;-83
2023/04/10 11:57:02;;;;;;;0.10;0.10;;;20.80;99.90;;;;;;5059878;28;20177;-83
2023/04/10 11:59:29;;;;;;;0.10;0.10;;;20.60;99.90;;;;;;5059740;28;20338;-83
2023/04/10 12:02:15;;;;;;;0.10;0.10;;;20.50;99.90;;;;;;5062815;28;20201;-83
2023/04/10 12:04:42;;;;;;;0.10;0.10;;;20.50;99.90;;;;;;5060077;28;20693;-83
2023/04/10 12:07:08;;;;;;;0.10;0.10;;;20.60;99.90;;;;;;5060889;28;20280;-83
2023/04/10 12:09:34;;;;;;;0.10;0.10;;;20.60;99.90;;;;;;5080193;28;20272;-82
2023/04/10 12:12:07;;;;;;;0.10;0.10;;;20.50;99.90;;;;;;5060470;28;21244;-82
2023/04/10 12:14:38;;;;;;;0.10;0.10;;;20.50;99.90;;;;;;5064048;28;20243;-81
2023/04/10 12:17:05;;;;;;;0.10;0.10;;;20.30;99.90;;;;;;5064893;28;20235;-82
2023/04/10 12:19:32;;;;;;;0.10;0.10;;;20.20;99.90;;;;;;5061420;28;20558;-82
2023/04/10 12:21:58;;;;;;;0.10;0.10;;;20.40;99.90;;;;;;5064934;28;20654;-82
2023/04/10 12:24:45;;;;;;;0.10;0.10;;;20.50;99.90;;;;;;5063825;28;20228;-82
2023/04/10 12:27:27;;;;;;;0.10;0.10;;;20.30;99.90;;;;;;5062402;28;20189;-82
2023/04/10 12:29:54;;;;;;;0.10;0.10;;;20.10;99.90;;;;;;5063489;28;20196;-82
2023/04/10 12:32:21;;;;;;;0.10;0.10;;;20.20;99.90;;;;;;5060414;28;20177;-83
2023/04/10 12:34:57;;;;;;;0.10;0.10;;;20.10;99.90;;;;;;5060045;28;20192;-82
2023/04/10 12:37:24;;;;;;;0.10;0.10;;;20.30;99.90;;;;;;5052146;28;20178;-82
2023/04/10 12:39:50;;;;;;;0.10;0.10;;;20.30;99.90;;;;;;5052220;28;20193;-82
2023/04/10 12:42:21;;;;;;;0.10;0.10;;;20.50;99.90;;;;;;5049275;28;20189;-82
2023/04/10 12:44:59;;;;;;;0.10;0.10;;;20.30;99.90;;;;;;5051181;28;20215;-82
2023/04/10 12:47:26;;;;;;;0.10;0.10;;;20.70;99.90;;;;;;5061103;28;20185;-81
2023/04/10 12:50:11;;;;;;;0.10;0.10;;;21.00;99.90;;;;;;5070548;28;20218;-81
2023/04/10 12:52:59;;;;;;;0.10;0.10;;;20.80;99.90;;;;;;5069614;28;20205;-81
2023/04/10 12:55:25;;;;;;;0.10;0.10;;;20.80;99.90;;;;;;5067698;28;20173;-82
2023/04/10 12:57:51;;;;;;;0.10;0.10;;;21.00;99.90;;;;;;5071322;28;20184;-82